Killamarsh, United Kingdom
Current Conditions -  °F | °C
As of 1:20 PM on Thursday 18 Dec 2014 (Local Time) from EGCN Reporting Station
Broken Clouds Broken Clouds  
Wind Chill: 59°   Ceiling: 2400
Heat Index: 59°   Visibility: 6mi
Dew Point: 52°   Wind: 22mph
Humidity: 77%   Direction: 230°SW
Pressure: 29.59"   Gusts: NA
Location:  53.32°N, 1.32°W
Report Text: EGCN 181320Z 23019KT 9999 BKN024 15/11 Q1002
Loading
Personal Weather Stations






























Interactive Weather Map New forecast layout! Learn more

10-Day Weather Forecast

Advertisements
Track Severe Weather on mobile